Audubon, Iowa
Current Conditions -  °F | °C
As of 6:15 AM on Monday 26 Jan 2015 (Local Time) from KADU Reporting Station
Clear Clear  
Wind Chill: 20°   Ceiling: Unl
Heat Index: 28°   Visibility: 10mi
Dew Point: 27°   Wind: 9mph
Humidity: 93%   Direction: 200°SSW
Pressure: 29.89"   Gusts: NA
Location:  41.72°N, 94.93°W
Report Text: KADU 261215Z AUTO 20008KT 10SM CLR M02/M03 A2989 RMK AO2
Loading
Personal Weather Stations






























Interactive Weather Map New forecast layout! Learn more

10-Day Weather Forecast

Advertisements
Track Severe Weather on mobile